sensor_id;sensor_type;location;lat;lon;timestamp;P1;durP1;ratioP1;P2;durP2;ratioP2
15567;SDS011;7885;42.596;23.044;2022-10-18T00:01:04;23.67;;;12.57;;
15567;SDS011;7885;42.596;23.044;2022-10-18T00:03:32;27.50;;;12.50;;
15567;SDS011;7885;42.596;23.044;2022-10-18T00:05:59;20.77;;;12.67;;
15567;SDS011;7885;42.596;23.044;2022-10-18T00:08:28;22.90;;;11.50;;
15567;SDS011;7885;42.596;23.044;2022-10-18T00:10:55;18.47;;;10.87;;
15567;SDS011;7885;42.596;23.044;2022-10-18T00:13:22;20.43;;;11.60;;
15567;SDS011;7885;42.596;23.044;2022-10-18T00:15:49;23.77;;;10.60;;
15567;SDS011;7885;42.596;23.044;2022-10-18T00:18:17;18.80;;;9.60;;
15567;SDS011;7885;42.596;23.044;2022-10-18T00:20:45;14.77;;;9.47;;
15567;SDS011;7885;42.596;23.044;2022-10-18T00:23:21;12.70;;;8.40;;
15567;SDS011;7885;42.596;23.044;2022-10-18T00:25:49;15.00;;;9.13;;
15567;SDS011;7885;42.596;23.044;2022-10-18T00:28:24;18.93;;;8.97;;
15567;SDS011;7885;42.596;23.044;2022-10-18T00:30:50;16.07;;;9.70;;
15567;SDS011;7885;42.596;23.044;2022-10-18T00:33:17;16.50;;;8.83;;
15567;SDS011;7885;42.596;23.044;2022-10-18T00:35:44;13.80;;;8.83;;
15567;SDS011;7885;42.596;23.044;2022-10-18T00:38:10;17.27;;;8.47;;
15567;SDS011;7885;42.596;23.044;2022-10-18T00:40:37;23.20;;;10.93;;
15567;SDS011;7885;42.596;23.044;2022-10-18T00:43:07;25.13;;;11.33;;
15567;SDS011;7885;42.596;23.044;2022-10-18T00:45:36;28.53;;;14.07;;
15567;SDS011;7885;42.596;23.044;2022-10-18T00:48:03;25.53;;;12.97;;
15567;SDS011;7885;42.596;23.044;2022-10-18T00:50:31;23.63;;;12.80;;
15567;SDS011;7885;42.596;23.044;2022-10-18T00:53:00;22.70;;;11.67;;
15567;SDS011;7885;42.596;23.044;2022-10-18T00:55:30;17.70;;;10.33;;
15567;SDS011;7885;42.596;23.044;2022-10-18T00:57:59;20.03;;;10.20;;
15567;SDS011;7885;42.596;23.044;2022-10-18T01:00:28;21.03;;;11.03;;
15567;SDS011;7885;42.596;23.044;2022-10-18T01:02:55;17.20;;;10.93;;
15567;SDS011;7885;42.596;23.044;2022-10-18T01:05:24;21.23;;;11.60;;
15567;SDS011;7885;42.596;23.044;2022-10-18T01:08:05;25.23;;;13.13;;
15567;SDS011;7885;42.596;23.044;2022-10-18T01:10:50;22.03;;;12.37;;
15567;SDS011;7885;42.596;23.044;2022-10-18T01:13:34;20.83;;;11.40;;
15567;SDS011;7885;42.596;23.044;2022-10-18T01:16:13;19.23;;;11.33;;
15567;SDS011;7885;42.596;23.044;2022-10-18T01:18:48;21.77;;;11.87;;
15567;SDS011;7885;42.596;23.044;2022-10-18T01:21:26;24.67;;;12.37;;
15567;SDS011;7885;42.596;23.044;2022-10-18T01:33:16;18.20;;;10.27;;
15567;SDS011;7885;42.596;23.044;2022-10-18T01:35:49;16.53;;;8.33;;
15567;SDS011;7885;42.596;23.044;2022-10-18T01:38:21;14.30;;;9.03;;
15567;SDS011;7885;42.596;23.044;2022-10-18T01:40:51;16.17;;;9.87;;
15567;SDS011;7885;42.596;23.044;2022-10-18T01:43:20;15.90;;;9.33;;
15567;SDS011;7885;42.596;23.044;2022-10-18T01:45:50;16.33;;;10.43;;
15567;SDS011;7885;42.596;23.044;2022-10-18T01:48:20;17.00;;;9.70;;
15567;SDS011;7885;42.596;23.044;2022-10-18T01:50:47;14.80;;;10.47;;
15567;SDS011;7885;42.596;23.044;2022-10-18T01:53:21;25.13;;;10.67;;
15567;SDS011;7885;42.596;23.044;2022-10-18T01:55:50;21.70;;;8.53;;
15567;SDS011;7885;42.596;23.044;2022-10-18T01:58:25;16.17;;;8.70;;
15567;SDS011;7885;42.596;23.044;2022-10-18T02:01:02;18.03;;;9.40;;
15567;SDS011;7885;42.596;23.044;2022-10-18T02:03:35;20.13;;;8.57;;
15567;SDS011;7885;42.596;23.044;2022-10-18T02:06:09;16.97;;;9.30;;
15567;SDS011;7885;42.596;23.044;2022-10-18T02:08:45;16.03;;;8.77;;
15567;SDS011;7885;42.596;23.044;2022-10-18T02:11:17;17.60;;;11.37;;
15567;SDS011;7885;42.596;23.044;2022-10-18T02:13:46;19.37;;;10.97;;
15567;SDS011;7885;42.596;23.044;2022-10-18T02:16:18;17.50;;;11.07;;
15567;SDS011;7885;42.596;23.044;2022-10-18T02:18:49;17.43;;;10.20;;
15567;SDS011;7885;42.596;23.044;2022-10-18T02:21:20;14.93;;;10.20;;
15567;SDS011;7885;42.596;23.044;2022-10-18T02:23:47;11.97;;;8.63;;
15567;SDS011;7885;42.596;23.044;2022-10-18T02:26:15;19.57;;;8.63;;
15567;SDS011;7885;42.596;23.044;2022-10-18T02:28:42;17.23;;;9.37;;
15567;SDS011;7885;42.596;23.044;2022-10-18T02:31:12;19.97;;;11.17;;
15567;SDS011;7885;42.596;23.044;2022-10-18T02:33:48;17.63;;;11.23;;
15567;SDS011;7885;42.596;23.044;2022-10-18T02:36:19;27.83;;;17.50;;
15567;SDS011;7885;42.596;23.044;2022-10-18T02:38:51;25.70;;;14.47;;
15567;SDS011;7885;42.596;23.044;2022-10-18T02:41:23;20.47;;;15.30;;
15567;SDS011;7885;42.596;23.044;2022-10-18T02:43:50;23.97;;;13.97;;
15567;SDS011;7885;42.596;23.044;2022-10-18T02:46:17;15.47;;;10.37;;
15567;SDS011;7885;42.596;23.044;2022-10-18T02:48:44;13.80;;;10.10;;
15567;SDS011;7885;42.596;23.044;2022-10-18T02:51:12;15.87;;;8.40;;
15567;SDS011;7885;42.596;23.044;2022-10-18T02:53:39;15.30;;;10.57;;
15567;SDS011;7885;42.596;23.044;2022-10-18T02:56:06;20.07;;;13.63;;
15567;SDS011;7885;42.596;23.044;2022-10-18T02:58:33;18.77;;;13.60;;
15567;SDS011;7885;42.596;23.044;2022-10-18T03:01:00;17.80;;;11.40;;
15567;SDS011;7885;42.596;23.044;2022-10-18T03:03:27;14.27;;;11.97;;
15567;SDS011;7885;42.596;23.044;2022-10-18T03:05:55;17.87;;;11.73;;
15567;SDS011;7885;42.596;23.044;2022-10-18T03:08:21;17.93;;;10.70;;
15567;SDS011;7885;42.596;23.044;2022-10-18T03:10:48;17.10;;;10.90;;
15567;SDS011;7885;42.596;23.044;2022-10-18T03:13:15;13.60;;;10.23;;
15567;SDS011;7885;42.596;23.044;2022-10-18T03:15:42;17.50;;;9.77;;
15567;SDS011;7885;42.596;23.044;2022-10-18T03:18:08;13.47;;;9.00;;
15567;SDS011;7885;42.596;23.044;2022-10-18T03:20:35;14.87;;;9.90;;
15567;SDS011;7885;42.596;23.044;2022-10-18T03:23:04;12.57;;;10.10;;
15567;SDS011;7885;42.596;23.044;2022-10-18T03:25:31;12.77;;;8.80;;
15567;SDS011;7885;42.596;23.044;2022-10-18T03:27:58;13.07;;;9.27;;
15567;SDS011;7885;42.596;23.044;2022-10-18T03:30:25;13.57;;;9.97;;
15567;SDS011;7885;42.596;23.044;2022-10-18T03:32:52;12.57;;;9.37;;
15567;SDS011;7885;42.596;23.044;2022-10-18T03:35:19;13.97;;;8.70;;
15567;SDS011;7885;42.596;23.044;2022-10-18T03:37:46;13.27;;;9.83;;
15567;SDS011;7885;42.596;23.044;2022-10-18T03:40:14;17.90;;;10.33;;
15567;SDS011;7885;42.596;23.044;2022-10-18T03:42:41;12.33;;;8.90;;
15567;SDS011;7885;42.596;23.044;2022-10-18T03:45:08;15.27;;;9.67;;
15567;SDS011;7885;42.596;23.044;2022-10-18T03:47:35;14.07;;;8.90;;
15567;SDS011;7885;42.596;23.044;2022-10-18T03:50:02;13.10;;;9.33;;
15567;SDS011;7885;42.596;23.044;2022-10-18T03:52:29;15.27;;;10.20;;
15567;SDS011;7885;42.596;23.044;2022-10-18T03:54:56;16.93;;;11.50;;
15567;SDS011;7885;42.596;23.044;2022-10-18T03:57:24;15.77;;;11.40;;
15567;SDS011;7885;42.596;23.044;2022-10-18T03:59:51;16.80;;;11.30;;
15567;SDS011;7885;42.596;23.044;2022-10-18T04:02:18;15.53;;;10.90;;
15567;SDS011;7885;42.596;23.044;2022-10-18T04:05:00;12.90;;;10.00;;
15567;SDS011;7885;42.596;23.044;2022-10-18T04:07:26;18.83;;;11.87;;
15567;SDS011;7885;42.596;23.044;2022-10-18T04:09:53;17.90;;;12.77;;
15567;SDS011;7885;42.596;23.044;2022-10-18T04:12:20;13.77;;;10.33;;
15567;SDS011;7885;42.596;23.044;2022-10-18T04:14:48;18.00;;;11.87;;
15567;SDS011;7885;42.596;23.044;2022-10-18T04:17:15;17.23;;;12.17;;
15567;SDS011;7885;42.596;23.044;2022-10-18T04:19:42;18.33;;;11.70;;
15567;SDS011;7885;42.596;23.044;2022-10-18T04:22:09;14.63;;;9.90;;
15567;SDS011;7885;42.596;23.044;2022-10-18T04:24:36;15.50;;;11.20;;
15567;SDS011;7885;42.596;23.044;2022-10-18T04:27:03;17.20;;;12.63;;
15567;SDS011;7885;42.596;23.044;2022-10-18T04:29:30;22.60;;;14.73;;
15567;SDS011;7885;42.596;23.044;2022-10-18T04:31:58;22.17;;;13.67;;
15567;SDS011;7885;42.596;23.044;2022-10-18T04:34:26;22.93;;;13.27;;
15567;SDS011;7885;42.596;23.044;2022-10-18T04:36:52;18.13;;;12.03;;
15567;SDS011;7885;42.596;23.044;2022-10-18T04:39:19;18.77;;;11.77;;
15567;SDS011;7885;42.596;23.044;2022-10-18T04:41:46;20.97;;;11.13;;
15567;SDS011;7885;42.596;23.044;2022-10-18T04:44:13;21.73;;;11.90;;
15567;SDS011;7885;42.596;23.044;2022-10-18T04:46:39;19.87;;;12.80;;
15567;SDS011;7885;42.596;23.044;2022-10-18T04:49:08;18.30;;;12.23;;
15567;SDS011;7885;42.596;23.044;2022-10-18T04:51:35;28.47;;;12.63;;
15567;SDS011;7885;42.596;23.044;2022-10-18T04:54:02;19.13;;;11.73;;
15567;SDS011;7885;42.596;23.044;2022-10-18T04:56:29;24.60;;;14.40;;
15567;SDS011;7885;42.596;23.044;2022-10-18T04:58:55;31.57;;;18.10;;
15567;SDS011;7885;42.596;23.044;2022-10-18T05:01:23;36.13;;;23.87;;
15567;SDS011;7885;42.596;23.044;2022-10-18T05:03:50;57.40;;;38.17;;
15567;SDS011;7885;42.596;23.044;2022-10-18T05:06:19;29.13;;;18.50;;
15567;SDS011;7885;42.596;23.044;2022-10-18T05:08:46;23.00;;;16.00;;
15567;SDS011;7885;42.596;23.044;2022-10-18T05:11:13;31.80;;;20.67;;
15567;SDS011;7885;42.596;23.044;2022-10-18T05:13:40;26.70;;;15.70;;
15567;SDS011;7885;42.596;23.044;2022-10-18T05:16:07;31.13;;;17.90;;
15567;SDS011;7885;42.596;23.044;2022-10-18T05:18:33;26.07;;;16.87;;
15567;SDS011;7885;42.596;23.044;2022-10-18T05:21:00;33.80;;;23.47;;
15567;SDS011;7885;42.596;23.044;2022-10-18T05:23:28;30.17;;;21.53;;
15567;SDS011;7885;42.596;23.044;2022-10-18T05:25:59;29.50;;;20.87;;
15567;SDS011;7885;42.596;23.044;2022-10-18T05:28:27;23.80;;;18.53;;
15567;SDS011;7885;42.596;23.044;2022-10-18T05:30:54;19.20;;;13.60;;
15567;SDS011;7885;42.596;23.044;2022-10-18T05:33:20;17.40;;;13.33;;
15567;SDS011;7885;42.596;23.044;2022-10-18T05:35:47;22.97;;;14.23;;
15567;SDS011;7885;42.596;23.044;2022-10-18T05:38:14;19.13;;;13.13;;
15567;SDS011;7885;42.596;23.044;2022-10-18T05:40:42;19.97;;;13.33;;
15567;SDS011;7885;42.596;23.044;2022-10-18T05:43:09;22.93;;;16.00;;
15567;SDS011;7885;42.596;23.044;2022-10-18T05:45:35;21.50;;;15.43;;
15567;SDS011;7885;42.596;23.044;2022-10-18T05:48:02;20.10;;;14.63;;
15567;SDS011;7885;42.596;23.044;2022-10-18T05:50:31;28.30;;;16.57;;
15567;SDS011;7885;42.596;23.044;2022-10-18T05:52:58;22.87;;;15.87;;
15567;SDS011;7885;42.596;23.044;2022-10-18T05:55:25;25.73;;;15.33;;
15567;SDS011;7885;42.596;23.044;2022-10-18T05:57:53;24.90;;;15.70;;
15567;SDS011;7885;42.596;23.044;2022-10-18T06:00:19;20.73;;;14.63;;
15567;SDS011;7885;42.596;23.044;2022-10-18T06:02:46;24.03;;;14.20;;
15567;SDS011;7885;42.596;23.044;2022-10-18T06:05:13;24.50;;;16.87;;
15567;SDS011;7885;42.596;23.044;2022-10-18T06:07:40;27.20;;;16.53;;
15567;SDS011;7885;42.596;23.044;2022-10-18T06:10:07;25.57;;;15.90;;
15567;SDS011;7885;42.596;23.044;2022-10-18T06:12:34;22.30;;;14.83;;
15567;SDS011;7885;42.596;23.044;2022-10-18T06:15:03;45.43;;;28.13;;
15567;SDS011;7885;42.596;23.044;2022-10-18T06:17:30;34.70;;;24.10;;
15567;SDS011;7885;42.596;23.044;2022-10-18T06:19:57;48.87;;;24.83;;
15567;SDS011;7885;42.596;23.044;2022-10-18T06:22:24;39.00;;;22.93;;
15567;SDS011;7885;42.596;23.044;2022-10-18T06:24:50;25.80;;;19.33;;
15567;SDS011;7885;42.596;23.044;2022-10-18T06:27:17;28.13;;;20.60;;
15567;SDS011;7885;42.596;23.044;2022-10-18T06:29:44;29.27;;;21.43;;
15567;SDS011;7885;42.596;23.044;2022-10-18T06:32:12;33.63;;;21.90;;
15567;SDS011;7885;42.596;23.044;2022-10-18T06:34:39;33.40;;;21.35;;
15567;SDS011;7885;42.596;23.044;2022-10-18T06:37:05;27.00;;;20.00;;
15567;SDS011;7885;42.596;23.044;2022-10-18T06:39:33;35.80;;;21.98;;
15567;SDS011;7885;42.596;23.044;2022-10-18T06:42:00;30.10;;;21.35;;
15567;SDS011;7885;42.596;23.044;2022-10-18T06:44:27;27.23;;;23.92;;
15567;SDS011;7885;42.596;23.044;2022-10-18T06:46:53;36.75;;;24.00;;
15567;SDS011;7885;42.596;23.044;2022-10-18T06:49:21;37.45;;;23.95;;
15567;SDS011;7885;42.596;23.044;2022-10-18T06:51:48;37.45;;;25.02;;
15567;SDS011;7885;42.596;23.044;2022-10-18T06:54:15;30.98;;;20.42;;
15567;SDS011;7885;42.596;23.044;2022-10-18T06:56:41;16.85;;;11.23;;
15567;SDS011;7885;42.596;23.044;2022-10-18T06:59:08;21.23;;;14.50;;
15567;SDS011;7885;42.596;23.044;2022-10-18T07:01:35;21.63;;;15.82;;
15567;SDS011;7885;42.596;23.044;2022-10-18T07:04:02;21.80;;;16.05;;
15567;SDS011;7885;42.596;23.044;2022-10-18T07:06:30;22.50;;;16.08;;
15567;SDS011;7885;42.596;23.044;2022-10-18T07:08:57;23.13;;;16.63;;
15567;SDS011;7885;42.596;23.044;2022-10-18T07:11:24;24.13;;;16.48;;
15567;SDS011;7885;42.596;23.044;2022-10-18T07:13:52;23.45;;;14.48;;
15567;SDS011;7885;42.596;23.044;2022-10-18T07:16:24;24.33;;;16.00;;
15567;SDS011;7885;42.596;23.044;2022-10-18T07:18:51;24.70;;;17.15;;
15567;SDS011;7885;42.596;23.044;2022-10-18T07:21:19;24.63;;;16.50;;
15567;SDS011;7885;42.596;23.044;2022-10-18T07:23:49;30.52;;;17.27;;
15567;SDS011;7885;42.596;23.044;2022-10-18T07:26:17;27.30;;;17.27;;
15567;SDS011;7885;42.596;23.044;2022-10-18T07:28:46;14.63;;;8.70;;
15567;SDS011;7885;42.596;23.044;2022-10-18T07:31:15;23.60;;;13.77;;
15567;SDS011;7885;42.596;23.044;2022-10-18T07:33:43;16.50;;;11.80;;
15567;SDS011;7885;42.596;23.044;2022-10-18T07:36:10;19.55;;;10.55;;
15567;SDS011;7885;42.596;23.044;2022-10-18T07:38:38;27.23;;;16.80;;
15567;SDS011;7885;42.596;23.044;2022-10-18T07:41:06;31.00;;;17.67;;
15567;SDS011;7885;42.596;23.044;2022-10-18T07:43:35;31.75;;;16.70;;
15567;SDS011;7885;42.596;23.044;2022-10-18T07:46:03;27.20;;;15.32;;
15567;SDS011;7885;42.596;23.044;2022-10-18T07:48:30;31.83;;;16.58;;
15567;SDS011;7885;42.596;23.044;2022-10-18T07:50:57;25.45;;;15.43;;
15567;SDS011;7885;42.596;23.044;2022-10-18T07:53:25;37.83;;;26.70;;
15567;SDS011;7885;42.596;23.044;2022-10-18T07:55:55;32.75;;;22.17;;
15567;SDS011;7885;42.596;23.044;2022-10-18T07:58:24;22.95;;;15.40;;
15567;SDS011;7885;42.596;23.044;2022-10-18T08:00:51;18.77;;;12.35;;
15567;SDS011;7885;42.596;23.044;2022-10-18T08:03:18;21.77;;;14.63;;
15567;SDS011;7885;42.596;23.044;2022-10-18T08:05:49;16.23;;;9.65;;
15567;SDS011;7885;42.596;23.044;2022-10-18T08:08:16;18.65;;;11.90;;
15567;SDS011;7885;42.596;23.044;2022-10-18T08:10:43;16.48;;;11.05;;
15567;SDS011;7885;42.596;23.044;2022-10-18T08:13:10;12.23;;;8.50;;
15567;SDS011;7885;42.596;23.044;2022-10-18T08:15:38;12.80;;;9.23;;
15567;SDS011;7885;42.596;23.044;2022-10-18T08:18:05;19.75;;;9.35;;
15567;SDS011;7885;42.596;23.044;2022-10-18T08:20:32;13.02;;;9.80;;
15567;SDS011;7885;42.596;23.044;2022-10-18T08:23:00;20.73;;;12.80;;
15567;SDS011;7885;42.596;23.044;2022-10-18T08:25:27;21.15;;;11.63;;
15567;SDS011;7885;42.596;23.044;2022-10-18T08:27:54;11.20;;;8.18;;
15567;SDS011;7885;42.596;23.044;2022-10-18T08:30:21;14.07;;;9.85;;
15567;SDS011;7885;42.596;23.044;2022-10-18T08:32:49;13.88;;;10.18;;
15567;SDS011;7885;42.596;23.044;2022-10-18T08:35:16;14.13;;;9.60;;
15567;SDS011;7885;42.596;23.044;2022-10-18T08:37:42;13.73;;;8.98;;
15567;SDS011;7885;42.596;23.044;2022-10-18T08:40:11;10.43;;;7.80;;
15567;SDS011;7885;42.596;23.044;2022-10-18T08:42:42;9.93;;;7.95;;
15567;SDS011;7885;42.596;23.044;2022-10-18T08:45:22;10.70;;;8.43;;
15567;SDS011;7885;42.596;23.044;2022-10-18T08:47:51;8.95;;;7.97;;
15567;SDS011;7885;42.596;23.044;2022-10-18T08:50:22;7.80;;;7.00;;
15567;SDS011;7885;42.596;23.044;2022-10-18T08:52:52;11.60;;;7.40;;
15567;SDS011;7885;42.596;23.044;2022-10-18T08:55:25;6.95;;;5.82;;
15567;SDS011;7885;42.596;23.044;2022-10-18T08:58:00;10.88;;;8.07;;
15567;SDS011;7885;42.596;23.044;2022-10-18T09:00:28;9.13;;;7.15;;
15567;SDS011;7885;42.596;23.044;2022-10-18T09:05:48;10.15;;;6.45;;
15567;SDS011;7885;42.596;23.044;2022-10-18T09:08:39;11.07;;;7.13;;
15567;SDS011;7885;42.596;23.044;2022-10-18T09:11:25;10.48;;;6.78;;
15567;SDS011;7885;42.596;23.044;2022-10-18T09:17:05;7.40;;;6.60;;
15567;SDS011;7885;42.596;23.044;2022-10-18T09:19:54;8.52;;;6.80;;
15567;SDS011;7885;42.596;23.044;2022-10-18T09:22:31;8.50;;;6.22;;
15567;SDS011;7885;42.596;23.044;2022-10-18T09:25:11;6.65;;;5.88;;
15567;SDS011;7885;42.596;23.044;2022-10-18T09:27:44;7.50;;;6.45;;
15567;SDS011;7885;42.596;23.044;2022-10-18T09:30:19;5.70;;;5.20;;
15567;SDS011;7885;42.596;23.044;2022-10-18T09:33:08;7.32;;;6.03;;
15567;SDS011;7885;42.596;23.044;2022-10-18T09:35:46;6.68;;;5.95;;
15567;SDS011;7885;42.596;23.044;2022-10-18T09:38:18;6.15;;;5.55;;
15567;SDS011;7885;42.596;23.044;2022-10-18T09:40:50;6.60;;;5.43;;
15567;SDS011;7885;42.596;23.044;2022-10-18T09:43:21;5.72;;;5.25;;
15567;SDS011;7885;42.596;23.044;2022-10-18T09:45:51;6.82;;;5.40;;
15567;SDS011;7885;42.596;23.044;2022-10-18T09:48:20;5.18;;;4.72;;
15567;SDS011;7885;42.596;23.044;2022-10-18T09:50:55;5.78;;;4.78;;
15567;SDS011;7885;42.596;23.044;2022-10-18T09:53:29;5.60;;;5.00;;
15567;SDS011;7885;42.596;23.044;2022-10-18T09:56:02;7.95;;;6.03;;
15567;SDS011;7885;42.596;23.044;2022-10-18T09:58:37;6.45;;;5.57;;
15567;SDS011;7885;42.596;23.044;2022-10-18T10:01:07;6.63;;;5.65;;
15567;SDS011;7885;42.596;23.044;2022-10-18T10:03:35;7.35;;;4.93;;
15567;SDS011;7885;42.596;23.044;2022-10-18T10:06:14;5.80;;;5.30;;
15567;SDS011;7885;42.596;23.044;2022-10-18T10:08:43;5.45;;;4.95;;
15567;SDS011;7885;42.596;23.044;2022-10-18T10:11:29;8.98;;;5.95;;
15567;SDS011;7885;42.596;23.044;2022-10-18T10:14:09;6.20;;;5.38;;
15567;SDS011;7885;42.596;23.044;2022-10-18T10:19:27;6.15;;;4.93;;
15567;SDS011;7885;42.596;23.044;2022-10-18T10:21:59;11.00;;;5.82;;
15567;SDS011;7885;42.596;23.044;2022-10-18T10:24:33;9.73;;;5.80;;
15567;SDS011;7885;42.596;23.044;2022-10-18T10:27:13;6.22;;;5.03;;
15567;SDS011;7885;42.596;23.044;2022-10-18T10:29:56;5.75;;;5.03;;
15567;SDS011;7885;42.596;23.044;2022-10-18T10:32:26;5.97;;;4.97;;
15567;SDS011;7885;42.596;23.044;2022-10-18T10:34:54;5.18;;;4.45;;
15567;SDS011;7885;42.596;23.044;2022-10-18T10:37:24;7.28;;;4.78;;
15567;SDS011;7885;42.596;23.044;2022-10-18T10:40:13;6.50;;;4.90;;
15567;SDS011;7885;42.596;23.044;2022-10-18T10:42:59;5.60;;;5.03;;
15567;SDS011;7885;42.596;23.044;2022-10-18T10:45:29;5.75;;;5.25;;
15567;SDS011;7885;42.596;23.044;2022-10-18T10:48:06;7.00;;;5.68;;
15567;SDS011;7885;42.596;23.044;2022-10-18T10:50:52;8.38;;;5.38;;
15567;SDS011;7885;42.596;23.044;2022-10-18T10:56:21;9.13;;;5.43;;
15567;SDS011;7885;42.596;23.044;2022-10-18T10:58:50;7.00;;;5.97;;
15567;SDS011;7885;42.596;23.044;2022-10-18T11:06:51;8.23;;;5.38;;
15567;SDS011;7885;42.596;23.044;2022-10-18T11:09:29;4.88;;;4.47;;
15567;SDS011;7885;42.596;23.044;2022-10-18T11:12:04;6.53;;;4.85;;
15567;SDS011;7885;42.596;23.044;2022-10-18T11:14:40;5.97;;;3.97;;
15567;SDS011;7885;42.596;23.044;2022-10-18T11:17:13;5.40;;;4.00;;
15567;SDS011;7885;42.596;23.044;2022-10-18T11:19:50;4.25;;;3.90;;
15567;SDS011;7885;42.596;23.044;2022-10-18T11:22:37;5.97;;;3.60;;
15567;SDS011;7885;42.596;23.044;2022-10-18T11:25:11;5.30;;;4.47;;
15567;SDS011;7885;42.596;23.044;2022-10-18T11:27:40;5.57;;;4.10;;
15567;SDS011;7885;42.596;23.044;2022-10-18T11:30:15;6.78;;;3.92;;
15567;SDS011;7885;42.596;23.044;2022-10-18T11:32:55;4.18;;;3.30;;
15567;SDS011;7885;42.596;23.044;2022-10-18T11:35:30;4.45;;;3.25;;
15567;SDS011;7885;42.596;23.044;2022-10-18T11:38:05;7.57;;;3.33;;
15567;SDS011;7885;42.596;23.044;2022-10-18T11:40:59;3.83;;;3.20;;
15567;SDS011;7885;42.596;23.044;2022-10-18T11:43:39;5.07;;;3.55;;
15567;SDS011;7885;42.596;23.044;2022-10-18T11:46:17;4.47;;;3.17;;
15567;SDS011;7885;42.596;23.044;2022-10-18T11:49:01;5.53;;;3.03;;
15567;SDS011;7885;42.596;23.044;2022-10-18T11:51:34;5.40;;;3.10;;
15567;SDS011;7885;42.596;23.044;2022-10-18T11:54:17;3.50;;;2.90;;
15567;SDS011;7885;42.596;23.044;2022-10-18T11:56:57;4.18;;;3.22;;
15567;SDS011;7885;42.596;23.044;2022-10-18T11:59:36;6.07;;;3.13;;
15567;SDS011;7885;42.596;23.044;2022-10-18T12:02:12;7.32;;;4.65;;
15567;SDS011;7885;42.596;23.044;2022-10-18T12:04:54;5.93;;;3.10;;
15567;SDS011;7885;42.596;23.044;2022-10-18T12:07:25;5.05;;;2.80;;
15567;SDS011;7885;42.596;23.044;2022-10-18T12:09:56;5.75;;;3.15;;
15567;SDS011;7885;42.596;23.044;2022-10-18T12:12:26;5.07;;;2.88;;
15567;SDS011;7885;42.596;23.044;2022-10-18T12:14:57;5.15;;;3.10;;
15567;SDS011;7885;42.596;23.044;2022-10-18T12:17:30;4.78;;;3.35;;
15567;SDS011;7885;42.596;23.044;2022-10-18T12:20:03;5.43;;;3.13;;
15567;SDS011;7885;42.596;23.044;2022-10-18T12:22:37;4.18;;;3.13;;
15567;SDS011;7885;42.596;23.044;2022-10-18T12:25:08;4.85;;;2.67;;
15567;SDS011;7885;42.596;23.044;2022-10-18T12:27:40;4.57;;;2.90;;
15567;SDS011;7885;42.596;23.044;2022-10-18T12:30:16;4.30;;;3.00;;
15567;SDS011;7885;42.596;23.044;2022-10-18T12:32:49;8.85;;;3.13;;
15567;SDS011;7885;42.596;23.044;2022-10-18T12:35:21;5.43;;;3.03;;
15567;SDS011;7885;42.596;23.044;2022-10-18T12:37:54;4.90;;;3.08;;
15567;SDS011;7885;42.596;23.044;2022-10-18T12:40:35;8.77;;;3.95;;
15567;SDS011;7885;42.596;23.044;2022-10-18T12:43:08;5.75;;;3.35;;
15567;SDS011;7885;42.596;23.044;2022-10-18T12:45:46;4.88;;;3.08;;
15567;SDS011;7885;42.596;23.044;2022-10-18T12:48:25;4.60;;;3.00;;
15567;SDS011;7885;42.596;23.044;2022-10-18T12:50:59;4.47;;;2.80;;
15567;SDS011;7885;42.596;23.044;2022-10-18T12:53:30;6.03;;;3.10;;
15567;SDS011;7885;42.596;23.044;2022-10-18T12:59:06;7.80;;;3.22;;
15567;SDS011;7885;42.596;23.044;2022-10-18T13:02:21;6.60;;;3.05;;
15567;SDS011;7885;42.596;23.044;2022-10-18T13:04:50;5.38;;;3.20;;
15567;SDS011;7885;42.596;23.044;2022-10-18T13:07:18;6.32;;;3.03;;
15567;SDS011;7885;42.596;23.044;2022-10-18T13:15:55;6.93;;;3.30;;
15567;SDS011;7885;42.596;23.044;2022-10-18T13:18:28;6.10;;;3.78;;
15567;SDS011;7885;42.596;23.044;2022-10-18T13:21:08;4.50;;;4.07;;
15567;SDS011;7885;42.596;23.044;2022-10-18T13:23:45;6.43;;;4.65;;
15567;SDS011;7885;42.596;23.044;2022-10-18T13:26:32;8.00;;;4.60;;
15567;SDS011;7885;42.596;23.044;2022-10-18T13:29:06;7.90;;;4.47;;
15567;SDS011;7885;42.596;23.044;2022-10-18T13:31:50;9.00;;;4.80;;
15567;SDS011;7885;42.596;23.044;2022-10-18T13:34:25;7.63;;;4.70;;
15567;SDS011;7885;42.596;23.044;2022-10-18T13:36:57;6.57;;;4.70;;
15567;SDS011;7885;42.596;23.044;2022-10-18T13:39:25;7.68;;;4.80;;
15567;SDS011;7885;42.596;23.044;2022-10-18T13:44:44;6.60;;;4.53;;
15567;SDS011;7885;42.596;23.044;2022-10-18T13:47:13;6.60;;;4.82;;
15567;SDS011;7885;42.596;23.044;2022-10-18T13:49:49;9.30;;;4.55;;
15567;SDS011;7885;42.596;23.044;2022-10-18T13:52:32;4.22;;;3.83;;
15567;SDS011;7885;42.596;23.044;2022-10-18T13:55:18;7.43;;;3.97;;
15567;SDS011;7885;42.596;23.044;2022-10-18T13:58:00;4.25;;;3.65;;
15567;SDS011;7885;42.596;23.044;2022-10-18T14:00:45;8.13;;;3.97;;
15567;SDS011;7885;42.596;23.044;2022-10-18T14:03:26;4.95;;;3.70;;
15567;SDS011;7885;42.596;23.044;2022-10-18T14:06:04;6.18;;;3.75;;
15567;SDS011;7885;42.596;23.044;2022-10-18T14:08:35;8.10;;;3.60;;
15567;SDS011;7885;42.596;23.044;2022-10-18T14:11:10;4.93;;;3.80;;
15567;SDS011;7885;42.596;23.044;2022-10-18T14:13:46;7.85;;;3.67;;
15567;SDS011;7885;42.596;23.044;2022-10-18T14:16:26;6.55;;;3.63;;
15567;SDS011;7885;42.596;23.044;2022-10-18T14:19:00;12.18;;;4.03;;
15567;SDS011;7885;42.596;23.044;2022-10-18T14:21:35;10.18;;;3.63;;
15567;SDS011;7885;42.596;23.044;2022-10-18T14:24:08;5.25;;;3.70;;
15567;SDS011;7885;42.596;23.044;2022-10-18T14:26:42;7.85;;;3.63;;
15567;SDS011;7885;42.596;23.044;2022-10-18T14:29:15;6.15;;;3.15;;
15567;SDS011;7885;42.596;23.044;2022-10-18T14:31:47;7.82;;;3.88;;
15567;SDS011;7885;42.596;23.044;2022-10-18T14:34:19;7.75;;;3.00;;
15567;SDS011;7885;42.596;23.044;2022-10-18T14:36:47;6.35;;;3.60;;
15567;SDS011;7885;42.596;23.044;2022-10-18T14:39:16;3.95;;;2.72;;
15567;SDS011;7885;42.596;23.044;2022-10-18T14:41:47;4.05;;;2.80;;
15567;SDS011;7885;42.596;23.044;2022-10-18T14:44:16;4.63;;;2.70;;
15567;SDS011;7885;42.596;23.044;2022-10-18T14:46:46;7.32;;;2.70;;
15567;SDS011;7885;42.596;23.044;2022-10-18T14:49:16;5.28;;;2.55;;
15567;SDS011;7885;42.596;23.044;2022-10-18T14:51:45;6.93;;;2.50;;
15567;SDS011;7885;42.596;23.044;2022-10-18T14:54:16;14.43;;;6.68;;
15567;SDS011;7885;42.596;23.044;2022-10-18T14:56:44;8.63;;;3.95;;
15567;SDS011;7885;42.596;23.044;2022-10-18T14:59:12;8.20;;;4.57;;
15567;SDS011;7885;42.596;23.044;2022-10-18T15:01:50;9.48;;;4.70;;
15567;SDS011;7885;42.596;23.044;2022-10-18T15:04:19;24.13;;;6.67;;
15567;SDS011;7885;42.596;23.044;2022-10-18T15:06:49;22.70;;;6.67;;
15567;SDS011;7885;42.596;23.044;2022-10-18T15:09:17;19.17;;;6.20;;
15567;SDS011;7885;42.596;23.044;2022-10-18T15:11:47;13.33;;;5.27;;
15567;SDS011;7885;42.596;23.044;2022-10-18T15:14:15;11.70;;;5.30;;
15567;SDS011;7885;42.596;23.044;2022-10-18T15:16:43;12.30;;;4.37;;
15567;SDS011;7885;42.596;23.044;2022-10-18T15:19:26;9.50;;;4.17;;
15567;SDS011;7885;42.596;23.044;2022-10-18T15:21:57;12.47;;;8.50;;
15567;SDS011;7885;42.596;23.044;2022-10-18T15:24:27;12.97;;;8.93;;
15567;SDS011;7885;42.596;23.044;2022-10-18T15:26:57;13.33;;;7.30;;
15567;SDS011;7885;42.596;23.044;2022-10-18T15:29:29;18.30;;;8.70;;
15567;SDS011;7885;42.596;23.044;2022-10-18T15:32:03;22.43;;;8.83;;
15567;SDS011;7885;42.596;23.044;2022-10-18T15:34:33;18.17;;;8.83;;